createdAt,value
2022-10-24T00:01:21.235Z,21.77
2022-10-24T00:03:49.363Z,24.85
2022-10-24T00:06:16.994Z,19.90
2022-10-24T00:08:44.942Z,22.75
2022-10-24T00:11:15.674Z,23.98
2022-10-24T00:13:43.562Z,21.83
2022-10-24T00:16:11.567Z,23.25
2022-10-24T00:18:38.974Z,20.35
2022-10-24T00:21:06.140Z,25.42
2022-10-24T00:23:33.253Z,18.85
2022-10-24T00:26:04.432Z,21.27
2022-10-24T00:28:33.101Z,20.05
2022-10-24T00:31:00.495Z,20.70
2022-10-24T00:33:27.976Z,17.42
2022-10-24T00:35:54.930Z,14.43
2022-10-24T00:38:22.013Z,16.67
2022-10-24T00:40:48.797Z,16.58
2022-10-24T00:43:22.342Z,15.95
2022-10-24T00:45:55.375Z,16.00
2022-10-24T00:48:53.455Z,17.95
2022-10-24T00:51:30.885Z,17.10
2022-10-24T00:54:02.358Z,20.88
2022-10-24T00:56:32.626Z,22.80
2022-10-24T00:59:01.818Z,17.20
2022-10-24T01:01:29.752Z,18.95
2022-10-24T01:03:56.567Z,15.95
2022-10-24T01:06:47.795Z,16.33
2022-10-24T01:09:44.604Z,16.40
2022-10-24T01:12:31.282Z,18.52
2022-10-24T01:15:24.090Z,19.50
2022-10-24T01:18:14.504Z,14.55
2022-10-24T01:21:18.131Z,18.83
2022-10-24T01:24:03.434Z,12.47
2022-10-24T01:26:49.129Z,13.38
2022-10-24T01:29:18.856Z,14.27
2022-10-24T01:32:09.914Z,15.43
2022-10-24T01:34:59.884Z,12.53
2022-10-24T01:37:56.377Z,14.63
2022-10-24T01:40:29.501Z,11.67
2022-10-24T01:43:00.702Z,14.07
2022-10-24T01:45:35.036Z,15.70
2022-10-24T01:48:06.067Z,16.60
2022-10-24T01:50:36.722Z,18.43
2022-10-24T01:53:05.018Z,17.90
2022-10-24T01:55:32.986Z,18.43
2022-10-24T01:57:59.875Z,20.33
2022-10-24T02:00:26.888Z,17.47
2022-10-24T02:03:02.222Z,16.00
2022-10-24T02:05:31.831Z,21.03
2022-10-24T02:08:05.672Z,20.23
2022-10-24T02:10:40.708Z,14.83
2022-10-24T02:13:45.291Z,17.63
2022-10-24T02:16:15.607Z,19.77
2022-10-24T02:18:42.616Z,17.33
2022-10-24T02:21:30.509Z,18.27
2022-10-24T02:24:06.299Z,16.97
2022-10-24T02:26:52.518Z,16.97
2022-10-24T02:29:43.921Z,22.70
2022-10-24T02:32:25.711Z,21.40
2022-10-24T02:34:53.043Z,19.93
2022-10-24T02:37:20.844Z,18.33
2022-10-24T02:39:50.486Z,18.70
2022-10-24T02:42:19.165Z,16.73
2022-10-24T02:44:48.324Z,14.73
2022-10-24T02:47:18.345Z,17.23
2022-10-24T02:49:46.282Z,18.50
2022-10-24T02:52:13.118Z,17.37
2022-10-24T02:54:40.015Z,17.37
2022-10-24T02:57:06.911Z,15.37
2022-10-24T02:59:33.728Z,16.80
2022-10-24T03:02:00.705Z,14.87
2022-10-24T03:04:27.577Z,18.47
2022-10-24T03:06:54.395Z,14.63
2022-10-24T03:09:21.280Z,15.13
2022-10-24T03:11:48.200Z,18.40
2022-10-24T03:14:15.075Z,17.17
2022-10-24T03:16:41.932Z,17.07
2022-10-24T03:19:08.862Z,15.63
2022-10-24T03:21:36.939Z,21.23
2022-10-24T03:24:04.209Z,15.73
2022-10-24T03:26:31.223Z,17.90
2022-10-24T03:28:58.068Z,17.27
2022-10-24T03:31:25.289Z,18.73
2022-10-24T03:33:52.149Z,20.90
2022-10-24T03:36:19.101Z,18.33
2022-10-24T03:38:45.954Z,17.63
2022-10-24T03:41:12.766Z,16.93
2022-10-24T03:43:39.662Z,20.50
2022-10-24T03:46:06.652Z,20.00
2022-10-24T03:48:33.583Z,19.10
2022-10-24T03:51:00.573Z,23.27
2022-10-24T03:53:27.464Z,21.50
2022-10-24T03:55:55.035Z,23.67
2022-10-24T03:58:21.868Z,21.30
2022-10-24T04:00:48.896Z,18.17
2022-10-24T04:03:15.873Z,21.93
2022-10-24T04:05:42.784Z,20.37
2022-10-24T04:08:09.818Z,140.83
2022-10-24T04:10:36.824Z,20.67
2022-10-24T04:13:04.027Z,31.37
2022-10-24T04:15:31.330Z,24.77
2022-10-24T04:17:58.161Z,30.33
2022-10-24T04:20:25.183Z,27.17
2022-10-24T04:22:51.993Z,27.37
2022-10-24T04:25:18.852Z,28.30
2022-10-24T04:27:46.523Z,32.37
2022-10-24T04:30:16.708Z,38.23
2022-10-24T04:32:45.116Z,37.90
2022-10-24T04:35:14.043Z,38.77
2022-10-24T04:37:40.903Z,33.53
2022-10-24T04:40:08.591Z,33.37
2022-10-24T04:42:35.405Z,33.57
2022-10-24T04:45:02.311Z,25.70
2022-10-24T04:47:29.168Z,27.30
2022-10-24T04:49:56.106Z,29.90
2022-10-24T04:52:22.941Z,33.97
2022-10-24T04:54:49.805Z,33.70
2022-10-24T04:57:16.744Z,37.60
2022-10-24T04:59:43.597Z,50.70
2022-10-24T05:02:10.535Z,32.07
2022-10-24T05:04:37.390Z,33.00
2022-10-24T05:07:04.307Z,34.53
2022-10-24T05:09:31.188Z,34.53
2022-10-24T05:11:58.277Z,33.33
2022-10-24T05:14:25.304Z,33.07
2022-10-24T05:16:52.269Z,33.63
2022-10-24T05:19:19.974Z,36.43
2022-10-24T05:21:47.216Z,34.80
2022-10-24T05:24:14.213Z,33.47
2022-10-24T05:26:41.144Z,35.57
2022-10-24T05:31:54.798Z,35.80
2022-10-24T05:34:21.798Z,32.50
2022-10-24T05:36:49.379Z,32.63
2022-10-24T05:39:16.275Z,29.20
2022-10-24T05:41:46.155Z,30.20
2022-10-24T05:44:15.019Z,35.00
2022-10-24T05:46:41.954Z,33.17
2022-10-24T05:49:08.927Z,22.53
2022-10-24T05:51:35.777Z,27.47
2022-10-24T05:54:02.795Z,24.97
2022-10-24T05:56:29.778Z,23.47
2022-10-24T05:58:57.653Z,22.93
2022-10-24T06:01:24.537Z,23.07
2022-10-24T06:03:51.501Z,17.97
2022-10-24T06:06:18.429Z,20.10
2022-10-24T06:08:45.231Z,18.23
2022-10-24T06:11:12.594Z,23.27
2022-10-24T06:13:39.950Z,29.97
2022-10-24T06:16:07.584Z,23.37
2022-10-24T06:18:35.048Z,14.25
2022-10-24T06:21:04.265Z,19.00
2022-10-24T06:23:31.861Z,19.00
2022-10-24T06:25:59.224Z,26.58
2022-10-24T06:28:26.229Z,20.17
2022-10-24T06:30:54.736Z,20.45
2022-10-24T06:33:21.831Z,19.73
2022-10-24T06:35:48.567Z,19.35
2022-10-24T06:38:15.335Z,19.40
2022-10-24T06:40:42.827Z,21.42
2022-10-24T06:43:09.767Z,18.00
2022-10-24T06:45:38.612Z,21.08
2022-10-24T06:48:05.636Z,18.50
2022-10-24T06:50:32.593Z,17.50
2022-10-24T06:53:00.257Z,13.60
2022-10-24T06:55:27.199Z,16.85
2022-10-24T06:57:54.338Z,16.23
2022-10-24T07:00:21.561Z,17.67
2022-10-24T07:02:48.736Z,18.67
2022-10-24T07:05:15.778Z,11.27
2022-10-24T07:07:43.720Z,13.38
2022-10-24T07:10:14.779Z,12.63
2022-10-24T07:12:43.550Z,13.98
2022-10-24T07:15:11.399Z,12.32
2022-10-24T07:17:42.953Z,15.80
2022-10-24T07:20:12.636Z,10.15
2022-10-24T07:22:39.905Z,10.95
2022-10-24T07:25:08.443Z,11.45
2022-10-24T07:27:35.590Z,11.88
2022-10-24T07:30:05.787Z,10.57
2022-10-24T07:32:35.709Z,14.38
2022-10-24T07:35:02.509Z,13.18
2022-10-24T07:37:29.400Z,14.90
2022-10-24T07:39:59.302Z,15.05
2022-10-24T07:42:26.105Z,17.58
2022-10-24T07:44:54.844Z,13.73
2022-10-24T07:47:21.741Z,19.05
2022-10-24T07:49:48.633Z,15.77
2022-10-24T07:52:15.428Z,16.13
2022-10-24T07:54:42.344Z,11.75
2022-10-24T07:57:09.200Z,14.30
2022-10-24T07:59:43.208Z,17.25
2022-10-24T08:02:15.947Z,15.55
2022-10-24T08:04:43.697Z,14.18
2022-10-24T08:07:14.762Z,18.98
2022-10-24T08:09:49.253Z,14.38
2022-10-24T08:12:16.113Z,16.88
2022-10-24T08:14:43.444Z,16.55
2022-10-24T08:17:10.773Z,13.35
2022-10-24T08:19:43.921Z,13.95
2022-10-24T08:22:11.779Z,16.50
2022-10-24T08:24:38.620Z,17.60
2022-10-24T08:27:05.426Z,16.30
2022-10-24T08:29:32.300Z,22.27
2022-10-24T08:32:02.283Z,24.35
2022-10-24T08:34:29.234Z,24.15
2022-10-24T08:36:56.354Z,21.67
2022-10-24T08:39:23.344Z,15.23
2022-10-24T08:42:06.534Z,16.85
2022-10-24T08:44:40.333Z,19.60
2022-10-24T08:47:32.177Z,21.42
2022-10-24T08:50:03.862Z,20.05
2022-10-24T08:52:44.459Z,17.98
2022-10-24T08:55:48.756Z,19.13
2022-10-24T08:58:15.275Z,22.13
2022-10-24T09:00:46.915Z,16.88
2022-10-24T09:03:56.474Z,18.00
2022-10-24T09:06:27.403Z,16.08
2022-10-24T09:08:55.547Z,17.30
2022-10-24T09:11:32.041Z,19.43
2022-10-24T09:14:03.257Z,13.30
2022-10-24T09:16:30.100Z,15.60
2022-10-24T09:18:58.599Z,17.25
2022-10-24T09:21:26.295Z,18.23
2022-10-24T09:23:53.436Z,18.25
2022-10-24T09:26:28.753Z,15.32
2022-10-24T09:28:57.201Z,13.88
2022-10-24T09:31:26.275Z,17.05
2022-10-24T09:33:54.239Z,22.02
2022-10-24T09:36:25.245Z,18.67
2022-10-24T09:38:52.615Z,14.73
2022-10-24T09:41:29.869Z,16.67
2022-10-24T09:43:58.033Z,16.33
2022-10-24T09:46:29.700Z,17.23
2022-10-24T09:49:01.724Z,14.45
2022-10-24T09:51:41.312Z,14.55
2022-10-24T09:54:20.070Z,14.27
2022-10-24T09:59:30.079Z,14.73
2022-10-24T10:02:29.975Z,14.32
2022-10-24T10:05:02.967Z,15.82
2022-10-24T10:07:42.044Z,13.30
2022-10-24T10:10:23.883Z,13.85
2022-10-24T10:13:02.058Z,19.77
2022-10-24T10:15:37.934Z,13.95
2022-10-24T10:18:42.528Z,17.42
2022-10-24T10:21:17.228Z,16.23
2022-10-24T10:23:52.218Z,16.85
2022-10-24T10:26:28.517Z,16.52
2022-10-24T10:29:04.876Z,14.82
2022-10-24T10:31:43.944Z,23.48
2022-10-24T10:34:16.131Z,14.80
2022-10-24T10:37:19.747Z,13.88
2022-10-24T10:40:05.279Z,18.83
2022-10-24T10:42:38.149Z,25.52
2022-10-24T10:45:19.743Z,19.30
2022-10-24T10:48:04.944Z,18.58
2022-10-24T10:50:37.891Z,16.25
2022-10-24T10:53:49.682Z,13.75
2022-10-24T10:56:42.734Z,17.83
2022-10-24T10:59:29.444Z,18.75
2022-10-24T11:02:18.067Z,16.00
2022-10-24T11:04:49.191Z,16.88
2022-10-24T11:07:35.513Z,13.80
2022-10-24T11:10:09.750Z,20.40
2022-10-24T11:12:40.058Z,18.15
2022-10-24T11:18:43.740Z,14.25
2022-10-24T11:21:14.987Z,14.68
2022-10-24T11:24:18.067Z,14.00
2022-10-24T11:27:08.655Z,14.68
2022-10-24T11:30:03.055Z,13.93
2022-10-24T11:32:37.708Z,16.67
2022-10-24T11:35:29.645Z,17.77
2022-10-24T11:38:12.261Z,14.57
2022-10-24T11:40:42.315Z,11.80
2022-10-24T11:43:35.443Z,19.40
2022-10-24T11:46:35.727Z,14.32
2022-10-24T11:49:29.425Z,13.70
2022-10-24T11:52:04.873Z,14.63
2022-10-24T11:54:41.619Z,18.55
2022-10-24T11:57:20.565Z,14.00
2022-10-24T11:59:47.482Z,14.70
2022-10-24T12:02:26.201Z,14.57
2022-10-24T12:05:30.951Z,17.95
2022-10-24T12:08:06.757Z,20.10
2022-10-24T12:10:57.592Z,12.27
2022-10-24T12:13:33.927Z,20.60
2022-10-24T12:16:06.875Z,21.25
2022-10-24T12:18:40.114Z,16.55
2022-10-24T12:21:11.954Z,16.27
2022-10-24T12:23:41.456Z,18.70
2022-10-24T12:26:08.333Z,12.18
2022-10-24T12:28:36.170Z,16.13
2022-10-24T12:31:22.472Z,17.15
2022-10-24T12:34:15.708Z,10.73
2022-10-24T12:37:19.589Z,15.73
2022-10-24T12:39:48.939Z,12.65
2022-10-24T12:42:24.932Z,18.40
2022-10-24T12:45:01.036Z,15.02
2022-10-24T12:47:30.780Z,13.82
2022-10-24T12:49:59.828Z,13.55
2022-10-24T12:52:32.658Z,11.15
2022-10-24T12:55:00.141Z,15.48
2022-10-24T12:57:32.318Z,11.35
2022-10-24T13:00:01.818Z,15.02
2022-10-24T13:02:31.667Z,14.57
2022-10-24T13:05:33.678Z,10.98
2022-10-24T13:08:18.303Z,21.27
2022-10-24T13:11:02.996Z,12.32
2022-10-24T13:13:50.073Z,10.80
2022-10-24T13:16:31.676Z,16.67
2022-10-24T13:19:01.216Z,14.45
2022-10-24T13:21:46.629Z,20.40
2022-10-24T13:24:16.807Z,14.95
2022-10-24T13:26:55.905Z,16.75
2022-10-24T13:29:28.720Z,12.98
2022-10-24T13:32:18.676Z,11.73
2022-10-24T13:34:50.621Z,10.10
2022-10-24T13:37:41.485Z,10.73
2022-10-24T13:40:11.357Z,8.90
2022-10-24T13:42:43.730Z,13.20
2022-10-24T13:45:26.718Z,10.25
2022-10-24T13:48:02.167Z,13.27
2022-10-24T13:50:32.183Z,16.58
2022-10-24T13:53:05.127Z,12.90
2022-10-24T13:55:37.332Z,17.08
2022-10-24T13:58:07.106Z,14.18
2022-10-24T14:00:37.894Z,11.68
2022-10-24T14:03:12.204Z,9.10
2022-10-24T14:05:45.759Z,15.02
2022-10-24T14:08:23.839Z,14.43
2022-10-24T14:10:53.559Z,13.48
2022-10-24T14:13:23.390Z,15.70
2022-10-24T14:15:53.943Z,11.68
2022-10-24T14:18:21.652Z,14.32
2022-10-24T14:21:02.109Z,17.90
2022-10-24T14:23:34.850Z,12.38
2022-10-24T14:26:07.252Z,11.57
2022-10-24T14:28:38.338Z,16.95
2022-10-24T14:31:08.796Z,10.75
2022-10-24T14:33:48.212Z,11.95
2022-10-24T14:36:15.500Z,15.30
2022-10-24T14:38:43.546Z,15.32
2022-10-24T14:41:10.585Z,14.18
2022-10-24T14:43:42.348Z,11.52
2022-10-24T14:46:12.558Z,14.75
2022-10-24T14:48:45.064Z,14.10
2022-10-24T14:51:38.588Z,17.15
2022-10-24T14:54:20.468Z,14.23
2022-10-24T14:56:47.910Z,12.18
2022-10-24T14:59:35.218Z,13.35
2022-10-24T15:02:19.750Z,22.75
2022-10-24T15:04:47.299Z,15.23
2022-10-24T15:07:32.078Z,17.75
2022-10-24T15:10:02.158Z,17.00
2022-10-24T15:12:38.159Z,21.45
2022-10-24T15:15:34.295Z,17.65
2022-10-24T15:18:17.202Z,15.15
2022-10-24T15:20:46.028Z,18.98
2022-10-24T15:26:03.868Z,18.70
2022-10-24T15:29:05.528Z,17.75
2022-10-24T15:31:35.360Z,21.27
2022-10-24T15:34:02.283Z,23.23
2022-10-24T15:36:31.886Z,20.92
2022-10-24T15:39:02.225Z,18.40
2022-10-24T15:41:29.440Z,21.20
2022-10-24T15:43:57.482Z,16.92
2022-10-24T15:46:24.807Z,15.15
2022-10-24T15:48:51.711Z,16.70
2022-10-24T15:51:24.364Z,22.77
2022-10-24T15:53:51.487Z,22.63
2022-10-24T15:56:18.289Z,20.00
2022-10-24T15:58:45.425Z,22.33
2022-10-24T16:01:42.741Z,23.48
2022-10-24T16:04:11.117Z,23.92
2022-10-24T16:06:38.014Z,21.77
2022-10-24T16:09:07.412Z,19.70
2022-10-24T16:11:34.366Z,24.60
2022-10-24T16:14:04.265Z,26.45
2022-10-24T16:16:31.266Z,22.23
2022-10-24T16:18:58.132Z,23.48
2022-10-24T16:21:28.020Z,26.95
2022-10-24T16:23:56.132Z,23.27
2022-10-24T16:26:22.990Z,25.77
2022-10-24T16:28:49.798Z,23.85
2022-10-24T16:31:23.605Z,27.13
2022-10-24T16:33:51.705Z,28.23
2022-10-24T16:36:20.903Z,28.43
2022-10-24T16:38:51.272Z,26.48
2022-10-24T16:41:20.549Z,24.30
2022-10-24T16:43:50.026Z,26.98
2022-10-24T16:46:20.027Z,23.50
2022-10-24T16:48:47.435Z,26.45
2022-10-24T16:51:18.236Z,55.95
2022-10-24T16:53:45.321Z,38.72
2022-10-24T16:56:13.977Z,27.92
2022-10-24T16:58:41.839Z,32.92
2022-10-24T17:01:11.656Z,30.60
2022-10-24T17:03:39.163Z,20.77
2022-10-24T17:06:07.072Z,22.13
2022-10-24T17:08:34.085Z,27.80
2022-10-24T17:11:01.075Z,27.63
2022-10-24T17:13:28.695Z,19.40
2022-10-24T17:15:56.413Z,21.88
2022-10-24T17:18:25.583Z,22.13
2022-10-24T17:21:00.218Z,22.38
2022-10-24T17:23:28.046Z,30.52
2022-10-24T17:25:55.611Z,25.33
2022-10-24T17:28:22.603Z,20.58
2022-10-24T17:30:49.614Z,28.88
2022-10-24T17:33:17.297Z,27.98
2022-10-24T17:35:53.183Z,34.55
2022-10-24T17:38:39.696Z,37.50
2022-10-24T17:41:36.613Z,28.75
2022-10-24T17:44:04.463Z,43.60
2022-10-24T17:46:31.830Z,44.63
2022-10-24T17:48:58.710Z,40.75
2022-10-24T17:51:27.242Z,47.28
2022-10-24T17:53:54.213Z,51.60
2022-10-24T17:56:23.331Z,45.10
2022-10-24T17:58:52.622Z,48.65
2022-10-24T18:01:20.715Z,51.72
2022-10-24T18:03:47.751Z,66.28
2022-10-24T18:06:15.397Z,64.82
2022-10-24T18:08:42.692Z,73.63
2022-10-24T18:11:10.339Z,78.80
2022-10-24T18:13:38.331Z,73.32
2022-10-24T18:16:13.116Z,72.04
2022-10-24T18:18:41.071Z,73.10
2022-10-24T18:21:10.742Z,67.47
2022-10-24T18:23:38.635Z,59.00
2022-10-24T18:26:09.463Z,77.22
2022-10-24T18:28:38.392Z,67.03
2022-10-24T18:31:10.135Z,57.40
2022-10-24T18:33:37.772Z,68.05
2022-10-24T18:36:09.896Z,66.90
2022-10-24T18:38:37.532Z,79.13
2022-10-24T18:41:04.703Z,64.47
2022-10-24T18:43:32.372Z,53.85
2022-10-24T18:45:59.751Z,64.00
2022-10-24T18:48:26.922Z,62.45
2022-10-24T18:50:53.873Z,50.42
2022-10-24T18:53:26.297Z,52.55
2022-10-24T18:55:53.281Z,49.35
2022-10-24T18:58:20.582Z,56.63
2022-10-24T19:00:48.118Z,47.53
2022-10-24T19:03:18.334Z,47.22
2022-10-24T19:05:55.413Z,50.33
2022-10-24T19:08:25.550Z,52.70
2022-10-24T19:10:54.622Z,55.47
2022-10-24T19:13:24.096Z,66.35
2022-10-24T19:15:58.957Z,64.97
2022-10-24T19:18:31.414Z,49.70
2022-10-24T19:20:59.607Z,60.95
2022-10-24T19:23:26.959Z,59.05
2022-10-24T19:25:54.102Z,67.57
2022-10-24T19:28:21.460Z,51.00
2022-10-24T19:30:48.437Z,45.50
2022-10-24T19:33:19.064Z,71.40
2022-10-24T19:35:49.822Z,62.38
2022-10-24T19:38:18.330Z,63.00
2022-10-24T19:40:52.092Z,57.20
2022-10-24T19:43:19.815Z,59.53
2022-10-24T19:45:55.043Z,57.83
2022-10-24T19:48:36.947Z,52.28
2022-10-24T19:51:06.188Z,54.95
2022-10-24T19:56:09.431Z,37.70
2022-10-24T19:58:37.154Z,46.58
2022-10-24T20:01:15.388Z,43.25
2022-10-24T20:03:45.164Z,47.92
2022-10-24T20:06:13.574Z,49.17
2022-10-24T20:08:40.523Z,35.00
2022-10-24T20:11:08.488Z,47.92
2022-10-24T20:13:35.528Z,49.00
2022-10-24T20:16:06.064Z,42.33
2022-10-24T20:18:36.168Z,42.45
2022-10-24T20:21:04.598Z,41.80
2022-10-24T20:23:32.119Z,36.22
2022-10-24T20:26:02.262Z,44.85
2022-10-24T20:28:29.877Z,35.97
2022-10-24T20:30:56.683Z,35.75
2022-10-24T20:33:23.496Z,34.83
2022-10-24T20:35:50.388Z,41.25
2022-10-24T20:38:17.295Z,42.95
2022-10-24T20:40:44.158Z,44.75
2022-10-24T20:43:10.995Z,42.88
2022-10-24T20:45:40.891Z,41.53
2022-10-24T20:48:08.119Z,45.88
2022-10-24T20:50:36.235Z,45.58
2022-10-24T20:53:03.682Z,39.42
2022-10-24T20:55:39.367Z,51.20
2022-10-24T20:58:06.564Z,36.53
2022-10-24T21:00:33.484Z,37.30
2022-10-24T21:03:00.364Z,39.65
2022-10-24T21:05:29.218Z,43.15
2022-10-24T21:07:56.256Z,43.55
2022-10-24T21:10:23.347Z,44.13
2022-10-24T21:12:50.624Z,47.53
2022-10-24T21:15:17.865Z,49.47
2022-10-24T21:17:44.981Z,44.55
2022-10-24T21:20:12.131Z,45.35
2022-10-24T21:22:38.988Z,40.22
2022-10-24T21:25:06.218Z,42.15
2022-10-24T21:27:33.047Z,34.92
2022-10-24T21:29:59.921Z,50.08
2022-10-24T21:32:26.747Z,44.20
2022-10-24T21:34:53.623Z,48.65
2022-10-24T21:37:20.614Z,54.72
2022-10-24T21:39:47.435Z,37.85
2022-10-24T21:42:14.322Z,39.72
2022-10-24T21:44:41.117Z,44.38
2022-10-24T21:47:07.903Z,40.28
2022-10-24T21:49:34.778Z,28.38
2022-10-24T21:52:01.632Z,36.28
2022-10-24T21:54:29.816Z,40.33
2022-10-24T21:56:58.279Z,29.98
2022-10-24T21:59:25.291Z,34.92
2022-10-24T22:01:52.570Z,35.95
2022-10-24T22:04:19.803Z,34.25
2022-10-24T22:06:47.373Z,41.38
2022-10-24T22:09:18.263Z,26.10
2022-10-24T22:11:45.891Z,34.80
2022-10-24T22:14:15.994Z,35.72
2022-10-24T22:16:43.801Z,33.58
2022-10-24T22:19:12.426Z,35.30
2022-10-24T22:21:49.746Z,36.28
2022-10-24T22:24:21.182Z,47.35
2022-10-24T22:26:49.001Z,31.58
2022-10-24T22:29:20.252Z,48.65
2022-10-24T22:31:48.073Z,40.33
2022-10-24T22:34:23.967Z,39.47
2022-10-24T22:37:15.403Z,36.88
2022-10-24T22:39:43.111Z,43.38
2022-10-24T22:42:13.586Z,50.10
2022-10-24T22:44:44.021Z,52.92
2022-10-24T22:47:39.536Z,38.97
2022-10-24T22:50:33.998Z,48.28
2022-10-24T22:53:02.255Z,48.70
2022-10-24T22:55:35.266Z,43.72
2022-10-24T22:58:02.429Z,32.85
2022-10-24T23:00:29.796Z,29.63
2022-10-24T23:03:31.803Z,32.08
2022-10-24T23:06:04.961Z,32.60
2022-10-24T23:08:37.838Z,43.05
2022-10-24T23:11:05.357Z,44.75
2022-10-24T23:13:33.804Z,41.95
2022-10-24T23:16:27.496Z,32.13
2022-10-24T23:18:54.668Z,25.40
2022-10-24T23:21:30.666Z,30.73
2022-10-24T23:23:57.749Z,29.85
2022-10-24T23:26:30.699Z,42.30
2022-10-24T23:29:15.290Z,46.13
2022-10-24T23:31:42.360Z,43.60
2022-10-24T23:34:10.435Z,45.20
2022-10-24T23:36:37.715Z,36.92
2022-10-24T23:39:04.832Z,36.85
2022-10-24T23:41:31.967Z,43.10
2022-10-24T23:43:59.027Z,44.45
2022-10-24T23:46:48.886Z,40.00
2022-10-24T23:49:48.215Z,42.50
2022-10-24T23:52:34.000Z,31.50
2022-10-24T23:55:01.039Z,26.83
2022-10-24T23:57:28.098Z,28.08
2022-10-24T23:59:54.879Z,31.92
